sensor_id;sensor_type;location;lat;lon;timestamp;P1;durP1;ratioP1;P2;durP2;ratioP2
84527;SDS011;74768;51.152;6.196;2024-01-27T00:02:16;8.00;;;3.00;;
84527;SDS011;74768;51.152;6.196;2024-01-27T00:04:42;7.88;;;2.92;;
84527;SDS011;74768;51.152;6.196;2024-01-27T00:07:07;11.07;;;3.63;;
84527;SDS011;74768;51.152;6.196;2024-01-27T00:09:32;11.53;;;2.47;;
84527;SDS011;74768;51.152;6.196;2024-01-27T00:11:57;12.93;;;3.63;;
84527;SDS011;74768;51.152;6.196;2024-01-27T00:14:23;10.50;;;3.90;;
84527;SDS011;74768;51.152;6.196;2024-01-27T00:16:48;10.35;;;3.20;;
84527;SDS011;74768;51.152;6.196;2024-01-27T00:19:13;10.13;;;3.50;;
84527;SDS011;74768;51.152;6.196;2024-01-27T00:21:39;12.07;;;2.97;;
84527;SDS011;74768;51.152;6.196;2024-01-27T00:24:04;12.73;;;3.00;;
84527;SDS011;74768;51.152;6.196;2024-01-27T00:26:29;9.07;;;3.13;;
84527;SDS011;74768;51.152;6.196;2024-01-27T00:28:55;11.52;;;3.30;;
84527;SDS011;74768;51.152;6.196;2024-01-27T00:31:20;9.20;;;3.60;;
84527;SDS011;74768;51.152;6.196;2024-01-27T00:33:46;10.15;;;3.63;;
84527;SDS011;74768;51.152;6.196;2024-01-27T00:36:11;10.43;;;3.30;;
84527;SDS011;74768;51.152;6.196;2024-01-27T00:38:36;11.52;;;3.67;;
84527;SDS011;74768;51.152;6.196;2024-01-27T00:41:02;12.55;;;4.05;;
84527;SDS011;74768;51.152;6.196;2024-01-27T00:43:27;12.00;;;2.93;;
84527;SDS011;74768;51.152;6.196;2024-01-27T00:45:52;12.80;;;3.25;;
84527;SDS011;74768;51.152;6.196;2024-01-27T00:48:18;12.87;;;3.83;;
84527;SDS011;74768;51.152;6.196;2024-01-27T00:50:44;15.40;;;4.60;;
84527;SDS011;74768;51.152;6.196;2024-01-27T00:53:09;7.33;;;3.00;;
84527;SDS011;74768;51.152;6.196;2024-01-27T00:55:34;8.23;;;3.63;;
84527;SDS011;74768;51.152;6.196;2024-01-27T00:58:00;9.35;;;3.13;;
84527;SDS011;74768;51.152;6.196;2024-01-27T01:00:25;8.68;;;2.85;;
84527;SDS011;74768;51.152;6.196;2024-01-27T01:02:50;10.10;;;3.37;;
84527;SDS011;74768;51.152;6.196;2024-01-27T01:05:16;7.88;;;3.30;;
84527;SDS011;74768;51.152;6.196;2024-01-27T01:07:41;6.30;;;3.20;;
84527;SDS011;74768;51.152;6.196;2024-01-27T01:10:07;11.43;;;3.63;;
84527;SDS011;74768;51.152;6.196;2024-01-27T01:12:32;16.98;;;4.10;;
84527;SDS011;74768;51.152;6.196;2024-01-27T01:14:58;12.60;;;3.33;;
84527;SDS011;74768;51.152;6.196;2024-01-27T01:17:23;9.10;;;3.83;;
84527;SDS011;74768;51.152;6.196;2024-01-27T01:19:48;11.18;;;3.20;;
84527;SDS011;74768;51.152;6.196;2024-01-27T01:22:14;8.95;;;3.28;;
84527;SDS011;74768;51.152;6.196;2024-01-27T01:24:39;12.90;;;3.90;;
84527;SDS011;74768;51.152;6.196;2024-01-27T01:27:04;9.50;;;3.30;;
84527;SDS011;74768;51.152;6.196;2024-01-27T01:29:30;11.73;;;4.53;;
84527;SDS011;74768;51.152;6.196;2024-01-27T01:31:56;14.20;;;3.35;;
84527;SDS011;74768;51.152;6.196;2024-01-27T01:34:21;14.07;;;3.87;;
84527;SDS011;74768;51.152;6.196;2024-01-27T01:36:47;10.13;;;4.20;;
84527;SDS011;74768;51.152;6.196;2024-01-27T01:39:13;11.77;;;4.00;;
84527;SDS011;74768;51.152;6.196;2024-01-27T01:41:38;10.63;;;4.80;;
84527;SDS011;74768;51.152;6.196;2024-01-27T01:44:04;12.77;;;3.80;;
84527;SDS011;74768;51.152;6.196;2024-01-27T01:46:29;11.52;;;4.03;;
84527;SDS011;74768;51.152;6.196;2024-01-27T01:48:55;16.52;;;4.60;;
84527;SDS011;74768;51.152;6.196;2024-01-27T01:51:20;11.55;;;4.13;;
84527;SDS011;74768;51.152;6.196;2024-01-27T01:53:47;14.43;;;4.35;;
84527;SDS011;74768;51.152;6.196;2024-01-27T01:56:16;12.50;;;4.93;;
84527;SDS011;74768;51.152;6.196;2024-01-27T01:58:42;15.43;;;4.93;;
84527;SDS011;74768;51.152;6.196;2024-01-27T02:01:07;15.30;;;5.17;;
84527;SDS011;74768;51.152;6.196;2024-01-27T02:03:32;14.98;;;4.93;;
84527;SDS011;74768;51.152;6.196;2024-01-27T02:05:58;9.13;;;3.73;;
84527;SDS011;74768;51.152;6.196;2024-01-27T02:08:23;11.88;;;5.25;;
84527;SDS011;74768;51.152;6.196;2024-01-27T02:10:48;23.65;;;5.70;;
84527;SDS011;74768;51.152;6.196;2024-01-27T02:13:17;15.50;;;4.57;;
84527;SDS011;74768;51.152;6.196;2024-01-27T02:15:44;13.68;;;4.43;;
84527;SDS011;74768;51.152;6.196;2024-01-27T02:18:09;15.88;;;4.97;;
84527;SDS011;74768;51.152;6.196;2024-01-27T02:20:35;18.58;;;5.57;;
84527;SDS011;74768;51.152;6.196;2024-01-27T02:23:00;12.00;;;4.97;;
84527;SDS011;74768;51.152;6.196;2024-01-27T02:25:29;15.68;;;4.60;;
84527;SDS011;74768;51.152;6.196;2024-01-27T02:27:54;21.38;;;6.03;;
84527;SDS011;74768;51.152;6.196;2024-01-27T02:30:20;10.10;;;5.17;;
84527;SDS011;74768;51.152;6.196;2024-01-27T02:32:45;15.00;;;4.20;;
84527;SDS011;74768;51.152;6.196;2024-01-27T02:35:10;13.63;;;5.50;;
84527;SDS011;74768;51.152;6.196;2024-01-27T02:37:36;9.30;;;4.33;;
84527;SDS011;74768;51.152;6.196;2024-01-27T02:40:01;12.23;;;4.43;;
84527;SDS011;74768;51.152;6.196;2024-01-27T02:42:26;14.13;;;5.77;;
84527;SDS011;74768;51.152;6.196;2024-01-27T02:44:51;11.05;;;4.82;;
84527;SDS011;74768;51.152;6.196;2024-01-27T02:47:17;11.77;;;4.90;;
84527;SDS011;74768;51.152;6.196;2024-01-27T02:49:42;15.13;;;5.30;;
84527;SDS011;74768;51.152;6.196;2024-01-27T02:52:07;12.53;;;4.67;;
84527;SDS011;74768;51.152;6.196;2024-01-27T02:54:34;14.63;;;7.25;;
84527;SDS011;74768;51.152;6.196;2024-01-27T02:56:59;14.48;;;5.88;;
84527;SDS011;74768;51.152;6.196;2024-01-27T02:59:24;16.73;;;5.77;;
84527;SDS011;74768;51.152;6.196;2024-01-27T03:01:50;14.82;;;5.20;;
84527;SDS011;74768;51.152;6.196;2024-01-27T03:04:15;13.87;;;5.17;;
84527;SDS011;74768;51.152;6.196;2024-01-27T03:06:40;14.70;;;4.93;;
84527;SDS011;74768;51.152;6.196;2024-01-27T03:09:05;10.53;;;5.53;;
84527;SDS011;74768;51.152;6.196;2024-01-27T03:11:31;16.40;;;4.77;;
84527;SDS011;74768;51.152;6.196;2024-01-27T03:13:56;11.23;;;4.90;;
84527;SDS011;74768;51.152;6.196;2024-01-27T03:16:21;11.32;;;5.15;;
84527;SDS011;74768;51.152;6.196;2024-01-27T03:18:46;9.73;;;4.80;;
84527;SDS011;74768;51.152;6.196;2024-01-27T03:21:12;15.07;;;5.57;;
84527;SDS011;74768;51.152;6.196;2024-01-27T03:23:37;10.17;;;4.77;;
84527;SDS011;74768;51.152;6.196;2024-01-27T03:26:02;28.17;;;5.80;;
84527;SDS011;74768;51.152;6.196;2024-01-27T03:28:29;11.40;;;5.45;;
84527;SDS011;74768;51.152;6.196;2024-01-27T03:30:55;20.42;;;6.10;;
84527;SDS011;74768;51.152;6.196;2024-01-27T03:33:20;15.13;;;5.22;;
84527;SDS011;74768;51.152;6.196;2024-01-27T03:35:47;15.43;;;6.28;;
84527;SDS011;74768;51.152;6.196;2024-01-27T03:38:13;10.77;;;5.10;;
84527;SDS011;74768;51.152;6.196;2024-01-27T03:40:38;13.57;;;6.43;;
84527;SDS011;74768;51.152;6.196;2024-01-27T03:43:03;20.00;;;6.87;;
84527;SDS011;74768;51.152;6.196;2024-01-27T03:45:28;11.83;;;4.90;;
84527;SDS011;74768;51.152;6.196;2024-01-27T03:47:54;10.93;;;5.23;;
84527;SDS011;74768;51.152;6.196;2024-01-27T03:50:19;16.27;;;5.23;;
84527;SDS011;74768;51.152;6.196;2024-01-27T03:52:44;13.50;;;5.50;;
84527;SDS011;74768;51.152;6.196;2024-01-27T03:55:10;11.32;;;4.47;;
84527;SDS011;74768;51.152;6.196;2024-01-27T03:57:35;11.48;;;5.38;;
84527;SDS011;74768;51.152;6.196;2024-01-27T04:00:01;21.03;;;6.53;;
84527;SDS011;74768;51.152;6.196;2024-01-27T04:02:26;14.27;;;6.50;;
84527;SDS011;74768;51.152;6.196;2024-01-27T04:04:51;18.33;;;5.63;;
84527;SDS011;74768;51.152;6.196;2024-01-27T04:07:16;11.50;;;4.10;;
84527;SDS011;74768;51.152;6.196;2024-01-27T04:09:42;11.03;;;4.93;;
84527;SDS011;74768;51.152;6.196;2024-01-27T04:12:07;16.43;;;4.53;;
84527;SDS011;74768;51.152;6.196;2024-01-27T04:14:32;11.57;;;5.13;;
84527;SDS011;74768;51.152;6.196;2024-01-27T04:16:58;9.75;;;4.68;;
84527;SDS011;74768;51.152;6.196;2024-01-27T04:19:23;14.03;;;5.60;;
84527;SDS011;74768;51.152;6.196;2024-01-27T04:21:48;12.03;;;4.93;;
84527;SDS011;74768;51.152;6.196;2024-01-27T04:24:14;8.17;;;4.73;;
84527;SDS011;74768;51.152;6.196;2024-01-27T04:26:39;12.05;;;5.70;;
84527;SDS011;74768;51.152;6.196;2024-01-27T04:29:04;11.83;;;5.17;;
84527;SDS011;74768;51.152;6.196;2024-01-27T04:31:30;13.05;;;5.63;;
84527;SDS011;74768;51.152;6.196;2024-01-27T04:33:58;15.63;;;5.10;;
84527;SDS011;74768;51.152;6.196;2024-01-27T04:36:29;13.63;;;5.07;;
84527;SDS011;74768;51.152;6.196;2024-01-27T04:38:54;19.10;;;6.28;;
84527;SDS011;74768;51.152;6.196;2024-01-27T04:41:20;14.75;;;4.93;;
84527;SDS011;74768;51.152;6.196;2024-01-27T04:43:45;12.57;;;4.85;;
84527;SDS011;74768;51.152;6.196;2024-01-27T04:46:11;13.40;;;5.07;;
84527;SDS011;74768;51.152;6.196;2024-01-27T04:48:39;12.07;;;5.70;;
84527;SDS011;74768;51.152;6.196;2024-01-27T04:51:05;17.30;;;5.90;;
84527;SDS011;74768;51.152;6.196;2024-01-27T04:53:30;17.07;;;5.77;;
84527;SDS011;74768;51.152;6.196;2024-01-27T04:55:55;12.90;;;5.57;;
84527;SDS011;74768;51.152;6.196;2024-01-27T04:58:21;15.77;;;4.83;;
84527;SDS011;74768;51.152;6.196;2024-01-27T05:00:46;17.17;;;5.17;;
84527;SDS011;74768;51.152;6.196;2024-01-27T05:03:11;18.47;;;5.60;;
84527;SDS011;74768;51.152;6.196;2024-01-27T05:05:41;15.02;;;5.57;;
84527;SDS011;74768;51.152;6.196;2024-01-27T05:08:07;8.40;;;4.55;;
84527;SDS011;74768;51.152;6.196;2024-01-27T05:10:32;13.32;;;5.72;;
84527;SDS011;74768;51.152;6.196;2024-01-27T05:12:58;13.10;;;6.00;;
84527;SDS011;74768;51.152;6.196;2024-01-27T05:15:24;15.30;;;5.82;;
84527;SDS011;74768;51.152;6.196;2024-01-27T05:17:50;18.13;;;5.30;;
84527;SDS011;74768;51.152;6.196;2024-01-27T05:20:15;13.02;;;5.88;;
84527;SDS011;74768;51.152;6.196;2024-01-27T05:22:40;11.00;;;5.03;;
84527;SDS011;74768;51.152;6.196;2024-01-27T05:25:06;16.67;;;5.60;;
84527;SDS011;74768;51.152;6.196;2024-01-27T05:27:31;13.95;;;5.35;;
84527;SDS011;74768;51.152;6.196;2024-01-27T05:29:56;18.43;;;6.60;;
84527;SDS011;74768;51.152;6.196;2024-01-27T05:32:22;16.00;;;5.45;;
84527;SDS011;74768;51.152;6.196;2024-01-27T05:34:47;18.35;;;6.07;;
84527;SDS011;74768;51.152;6.196;2024-01-27T05:37:13;17.75;;;5.35;;
84527;SDS011;74768;51.152;6.196;2024-01-27T05:39:38;10.93;;;5.33;;
84527;SDS011;74768;51.152;6.196;2024-01-27T05:42:03;11.05;;;5.72;;
84527;SDS011;74768;51.152;6.196;2024-01-27T05:44:29;10.25;;;5.05;;
84527;SDS011;74768;51.152;6.196;2024-01-27T05:46:54;14.45;;;6.60;;
84527;SDS011;74768;51.152;6.196;2024-01-27T05:49:19;16.47;;;5.23;;
84527;SDS011;74768;51.152;6.196;2024-01-27T05:51:45;14.83;;;5.30;;
84527;SDS011;74768;51.152;6.196;2024-01-27T05:54:10;11.55;;;6.20;;
84527;SDS011;74768;51.152;6.196;2024-01-27T05:56:39;18.77;;;6.85;;
84527;SDS011;74768;51.152;6.196;2024-01-27T05:59:05;11.02;;;5.03;;
84527;SDS011;74768;51.152;6.196;2024-01-27T06:01:30;12.67;;;5.47;;
84527;SDS011;74768;51.152;6.196;2024-01-27T06:03:55;18.43;;;7.23;;
84527;SDS011;74768;51.152;6.196;2024-01-27T06:06:21;17.27;;;5.87;;
84527;SDS011;74768;51.152;6.196;2024-01-27T06:08:46;16.43;;;5.43;;
84527;SDS011;74768;51.152;6.196;2024-01-27T06:11:11;17.80;;;6.15;;
84527;SDS011;74768;51.152;6.196;2024-01-27T06:13:37;13.53;;;6.33;;
84527;SDS011;74768;51.152;6.196;2024-01-27T06:16:08;15.63;;;6.22;;
84527;SDS011;74768;51.152;6.196;2024-01-27T06:18:34;14.30;;;5.80;;
84527;SDS011;74768;51.152;6.196;2024-01-27T06:21:00;16.10;;;5.65;;
84527;SDS011;74768;51.152;6.196;2024-01-27T06:23:26;12.15;;;6.10;;
84527;SDS011;74768;51.152;6.196;2024-01-27T06:25:51;12.57;;;4.47;;
84527;SDS011;74768;51.152;6.196;2024-01-27T06:28:17;19.40;;;6.77;;
84527;SDS011;74768;51.152;6.196;2024-01-27T06:30:42;15.40;;;5.53;;
84527;SDS011;74768;51.152;6.196;2024-01-27T06:33:08;17.55;;;6.07;;
84527;SDS011;74768;51.152;6.196;2024-01-27T06:35:33;21.15;;;6.68;;
84527;SDS011;74768;51.152;6.196;2024-01-27T06:37:58;12.20;;;5.53;;
84527;SDS011;74768;51.152;6.196;2024-01-27T06:40:23;21.13;;;6.07;;
84527;SDS011;74768;51.152;6.196;2024-01-27T06:42:49;19.33;;;6.72;;
84527;SDS011;74768;51.152;6.196;2024-01-27T06:45:14;20.60;;;6.00;;
84527;SDS011;74768;51.152;6.196;2024-01-27T06:47:40;24.43;;;6.97;;
84527;SDS011;74768;51.152;6.196;2024-01-27T06:50:05;21.30;;;6.40;;
84527;SDS011;74768;51.152;6.196;2024-01-27T06:52:31;11.05;;;6.03;;
84527;SDS011;74768;51.152;6.196;2024-01-27T06:54:56;13.53;;;6.20;;
84527;SDS011;74768;51.152;6.196;2024-01-27T06:57:23;20.70;;;7.30;;
84527;SDS011;74768;51.152;6.196;2024-01-27T06:59:50;18.40;;;6.95;;
84527;SDS011;74768;51.152;6.196;2024-01-27T07:02:24;20.30;;;6.65;;
84527;SDS011;74768;51.152;6.196;2024-01-27T07:07:16;15.27;;;6.13;;
84527;SDS011;74768;51.152;6.196;2024-01-27T07:09:41;13.47;;;5.40;;
84527;SDS011;74768;51.152;6.196;2024-01-27T07:12:07;14.07;;;5.77;;
84527;SDS011;74768;51.152;6.196;2024-01-27T07:14:34;20.60;;;6.70;;
84527;SDS011;74768;51.152;6.196;2024-01-27T07:16:59;27.27;;;7.05;;
84527;SDS011;74768;51.152;6.196;2024-01-27T07:19:24;14.67;;;5.37;;
84527;SDS011;74768;51.152;6.196;2024-01-27T07:21:50;16.73;;;5.90;;
84527;SDS011;74768;51.152;6.196;2024-01-27T07:24:15;19.97;;;6.60;;
84527;SDS011;74768;51.152;6.196;2024-01-27T07:26:40;18.80;;;6.83;;
84527;SDS011;74768;51.152;6.196;2024-01-27T07:29:07;15.70;;;5.90;;
84527;SDS011;74768;51.152;6.196;2024-01-27T07:31:32;15.40;;;5.90;;
84527;SDS011;74768;51.152;6.196;2024-01-27T07:33:58;20.70;;;6.63;;
84527;SDS011;74768;51.152;6.196;2024-01-27T07:36:23;23.30;;;6.60;;
84527;SDS011;74768;51.152;6.196;2024-01-27T07:38:50;17.38;;;6.03;;
84527;SDS011;74768;51.152;6.196;2024-01-27T07:41:15;16.37;;;6.80;;
84527;SDS011;74768;51.152;6.196;2024-01-27T07:43:40;17.97;;;7.10;;
84527;SDS011;74768;51.152;6.196;2024-01-27T07:46:06;17.38;;;5.10;;
84527;SDS011;74768;51.152;6.196;2024-01-27T07:48:32;19.67;;;6.53;;
84527;SDS011;74768;51.152;6.196;2024-01-27T07:50:57;20.90;;;6.67;;
84527;SDS011;74768;51.152;6.196;2024-01-27T07:53:22;16.50;;;5.78;;
84527;SDS011;74768;51.152;6.196;2024-01-27T07:55:48;18.77;;;6.77;;
84527;SDS011;74768;51.152;6.196;2024-01-27T07:58:13;18.57;;;5.40;;
84527;SDS011;74768;51.152;6.196;2024-01-27T08:00:38;21.15;;;6.13;;
84527;SDS011;74768;51.152;6.196;2024-01-27T08:03:03;16.97;;;6.47;;
84527;SDS011;74768;51.152;6.196;2024-01-27T08:05:30;24.50;;;6.65;;
84527;SDS011;74768;51.152;6.196;2024-01-27T08:07:55;22.65;;;6.43;;
84527;SDS011;74768;51.152;6.196;2024-01-27T08:10:20;23.10;;;6.97;;
84527;SDS011;74768;51.152;6.196;2024-01-27T08:12:47;22.73;;;6.68;;
84527;SDS011;74768;51.152;6.196;2024-01-27T08:15:13;16.75;;;5.22;;
84527;SDS011;74768;51.152;6.196;2024-01-27T08:17:38;17.48;;;5.65;;
84527;SDS011;74768;51.152;6.196;2024-01-27T08:20:03;23.80;;;7.00;;
84527;SDS011;74768;51.152;6.196;2024-01-27T08:22:29;18.45;;;6.68;;
84527;SDS011;74768;51.152;6.196;2024-01-27T08:24:54;23.07;;;6.63;;
84527;SDS011;74768;51.152;6.196;2024-01-27T08:27:20;25.02;;;6.43;;
84527;SDS011;74768;51.152;6.196;2024-01-27T08:29:45;20.43;;;6.10;;
84527;SDS011;74768;51.152;6.196;2024-01-27T08:32:10;23.43;;;6.13;;
84527;SDS011;74768;51.152;6.196;2024-01-27T08:34:36;25.37;;;6.20;;
84527;SDS011;74768;51.152;6.196;2024-01-27T08:37:01;24.37;;;6.73;;
84527;SDS011;74768;51.152;6.196;2024-01-27T08:39:27;24.92;;;7.95;;
84527;SDS011;74768;51.152;6.196;2024-01-27T08:41:52;21.73;;;5.70;;
84527;SDS011;74768;51.152;6.196;2024-01-27T08:44:18;19.80;;;6.67;;
84527;SDS011;74768;51.152;6.196;2024-01-27T08:46:43;22.87;;;6.93;;
84527;SDS011;74768;51.152;6.196;2024-01-27T08:49:08;29.42;;;6.63;;
84527;SDS011;74768;51.152;6.196;2024-01-27T08:51:34;32.83;;;7.47;;
84527;SDS011;74768;51.152;6.196;2024-01-27T08:53:59;21.48;;;7.00;;
84527;SDS011;74768;51.152;6.196;2024-01-27T08:56:24;18.77;;;6.73;;
84527;SDS011;74768;51.152;6.196;2024-01-27T08:58:50;22.30;;;6.27;;
84527;SDS011;74768;51.152;6.196;2024-01-27T09:01:16;14.25;;;5.88;;
84527;SDS011;74768;51.152;6.196;2024-01-27T09:03:41;18.70;;;6.55;;
84527;SDS011;74768;51.152;6.196;2024-01-27T09:06:07;21.55;;;7.00;;
84527;SDS011;74768;51.152;6.196;2024-01-27T09:08:35;14.27;;;6.00;;
84527;SDS011;74768;51.152;6.196;2024-01-27T09:11:01;19.63;;;7.30;;
84527;SDS011;74768;51.152;6.196;2024-01-27T09:13:27;22.35;;;7.88;;
84527;SDS011;74768;51.152;6.196;2024-01-27T09:15:52;21.93;;;6.70;;
84527;SDS011;74768;51.152;6.196;2024-01-27T09:18:18;23.73;;;6.50;;
84527;SDS011;74768;51.152;6.196;2024-01-27T09:20:43;28.37;;;6.57;;
84527;SDS011;74768;51.152;6.196;2024-01-27T09:23:08;22.70;;;6.50;;
84527;SDS011;74768;51.152;6.196;2024-01-27T09:25:33;22.63;;;7.13;;
84527;SDS011;74768;51.152;6.196;2024-01-27T09:27:59;22.17;;;6.00;;
84527;SDS011;74768;51.152;6.196;2024-01-27T09:30:26;19.27;;;6.72;;
84527;SDS011;74768;51.152;6.196;2024-01-27T09:32:51;18.08;;;6.05;;
84527;SDS011;74768;51.152;6.196;2024-01-27T09:35:17;22.45;;;5.32;;
84527;SDS011;74768;51.152;6.196;2024-01-27T09:37:42;27.05;;;5.97;;
84527;SDS011;74768;51.152;6.196;2024-01-27T09:40:08;17.95;;;4.90;;
84527;SDS011;74768;51.152;6.196;2024-01-27T09:42:33;19.45;;;5.25;;
84527;SDS011;74768;51.152;6.196;2024-01-27T09:45:03;14.55;;;4.78;;
84527;SDS011;74768;51.152;6.196;2024-01-27T09:47:30;17.05;;;4.88;;
84527;SDS011;74768;51.152;6.196;2024-01-27T09:49:55;16.02;;;4.78;;
84527;SDS011;74768;51.152;6.196;2024-01-27T09:52:20;12.95;;;4.88;;
84527;SDS011;74768;51.152;6.196;2024-01-27T09:54:46;19.73;;;5.25;;
84527;SDS011;74768;51.152;6.196;2024-01-27T09:57:11;13.88;;;4.50;;
84527;SDS011;74768;51.152;6.196;2024-01-27T09:59:38;16.85;;;4.65;;
84527;SDS011;74768;51.152;6.196;2024-01-27T10:02:09;18.70;;;4.63;;
84527;SDS011;74768;51.152;6.196;2024-01-27T10:04:37;12.32;;;5.22;;
84527;SDS011;74768;51.152;6.196;2024-01-27T10:07:05;18.85;;;5.03;;
84527;SDS011;74768;51.152;6.196;2024-01-27T10:09:31;13.73;;;4.70;;
84527;SDS011;74768;51.152;6.196;2024-01-27T10:11:56;15.77;;;5.43;;
84527;SDS011;74768;51.152;6.196;2024-01-27T10:14:22;11.55;;;4.10;;
84527;SDS011;74768;51.152;6.196;2024-01-27T10:16:47;12.40;;;5.15;;
84527;SDS011;74768;51.152;6.196;2024-01-27T10:19:18;12.73;;;3.93;;
84527;SDS011;74768;51.152;6.196;2024-01-27T10:21:45;16.15;;;5.45;;
84527;SDS011;74768;51.152;6.196;2024-01-27T10:24:11;15.02;;;4.30;;
84527;SDS011;74768;51.152;6.196;2024-01-27T10:26:37;15.15;;;4.35;;
84527;SDS011;74768;51.152;6.196;2024-01-27T10:29:02;13.88;;;4.07;;
84527;SDS011;74768;51.152;6.196;2024-01-27T10:31:28;10.95;;;3.90;;
84527;SDS011;74768;51.152;6.196;2024-01-27T10:33:55;12.23;;;3.60;;
84527;SDS011;74768;51.152;6.196;2024-01-27T10:36:26;16.65;;;4.00;;
84527;SDS011;74768;51.152;6.196;2024-01-27T10:39:02;18.60;;;4.20;;
84527;SDS011;74768;51.152;6.196;2024-01-27T10:41:38;8.35;;;3.65;;
84527;SDS011;74768;51.152;6.196;2024-01-27T10:44:05;16.88;;;3.63;;
84527;SDS011;74768;51.152;6.196;2024-01-27T10:46:32;18.02;;;4.22;;
84527;SDS011;74768;51.152;6.196;2024-01-27T10:48:57;13.60;;;3.42;;
84527;SDS011;74768;51.152;6.196;2024-01-27T10:51:30;13.95;;;3.78;;
84527;SDS011;74768;51.152;6.196;2024-01-27T10:54:02;17.83;;;3.70;;
84527;SDS011;74768;51.152;6.196;2024-01-27T10:56:29;14.05;;;4.25;;
84527;SDS011;74768;51.152;6.196;2024-01-27T10:58:56;8.75;;;3.00;;
84527;SDS011;74768;51.152;6.196;2024-01-27T11:01:23;13.80;;;3.05;;
84527;SDS011;74768;51.152;6.196;2024-01-27T11:03:49;6.60;;;3.00;;
84527;SDS011;74768;51.152;6.196;2024-01-27T11:06:17;11.77;;;3.42;;
84527;SDS011;74768;51.152;6.196;2024-01-27T11:08:44;11.88;;;3.10;;
84527;SDS011;74768;51.152;6.196;2024-01-27T11:11:11;10.05;;;3.30;;
84527;SDS011;74768;51.152;6.196;2024-01-27T11:13:36;10.98;;;3.17;;
84527;SDS011;74768;51.152;6.196;2024-01-27T11:16:02;15.63;;;3.08;;
84527;SDS011;74768;51.152;6.196;2024-01-27T11:18:29;16.85;;;4.50;;
84527;SDS011;74768;51.152;6.196;2024-01-27T11:20:55;12.70;;;3.17;;
84527;SDS011;74768;51.152;6.196;2024-01-27T11:23:30;8.25;;;3.30;;
84527;SDS011;74768;51.152;6.196;2024-01-27T11:26:04;9.40;;;3.35;;
84527;SDS011;74768;51.152;6.196;2024-01-27T11:28:30;7.53;;;3.42;;
84527;SDS011;74768;51.152;6.196;2024-01-27T11:30:55;21.17;;;3.90;;
84527;SDS011;74768;51.152;6.196;2024-01-27T11:33:24;9.43;;;2.80;;
84527;SDS011;74768;51.152;6.196;2024-01-27T11:35:59;12.27;;;3.58;;
84527;SDS011;74768;51.152;6.196;2024-01-27T11:38:30;13.32;;;3.78;;
84527;SDS011;74768;51.152;6.196;2024-01-27T11:40:56;12.63;;;3.65;;
84527;SDS011;74768;51.152;6.196;2024-01-27T11:43:21;14.43;;;4.00;;
84527;SDS011;74768;51.152;6.196;2024-01-27T11:45:59;8.68;;;4.50;;
84527;SDS011;74768;51.152;6.196;2024-01-27T11:48:25;10.60;;;2.95;;
84527;SDS011;74768;51.152;6.196;2024-01-27T11:53:45;13.65;;;3.53;;
84527;SDS011;74768;51.152;6.196;2024-01-27T11:56:11;9.80;;;2.85;;
84527;SDS011;74768;51.152;6.196;2024-01-27T11:58:37;9.90;;;2.60;;
84527;SDS011;74768;51.152;6.196;2024-01-27T12:01:02;11.98;;;2.97;;
84527;SDS011;74768;51.152;6.196;2024-01-27T12:03:28;10.82;;;2.55;;
84527;SDS011;74768;51.152;6.196;2024-01-27T12:05:55;9.15;;;2.95;;
84527;SDS011;74768;51.152;6.196;2024-01-27T12:08:20;8.40;;;2.30;;
84527;SDS011;74768;51.152;6.196;2024-01-27T12:10:46;10.93;;;3.17;;
84527;SDS011;74768;51.152;6.196;2024-01-27T12:13:11;9.32;;;2.80;;
84527;SDS011;74768;51.152;6.196;2024-01-27T12:15:36;6.05;;;2.38;;
84527;SDS011;74768;51.152;6.196;2024-01-27T12:18:03;7.70;;;2.85;;
84527;SDS011;74768;51.152;6.196;2024-01-27T12:20:29;12.38;;;2.45;;
84527;SDS011;74768;51.152;6.196;2024-01-27T12:23:07;10.90;;;4.13;;
84527;SDS011;74768;51.152;6.196;2024-01-27T12:25:33;7.20;;;2.25;;
84527;SDS011;74768;51.152;6.196;2024-01-27T12:28:16;7.43;;;2.40;;
84527;SDS011;74768;51.152;6.196;2024-01-27T12:30:43;7.63;;;2.80;;
84527;SDS011;74768;51.152;6.196;2024-01-27T12:33:09;5.20;;;2.23;;
84527;SDS011;74768;51.152;6.196;2024-01-27T12:35:36;9.80;;;2.53;;
84527;SDS011;74768;51.152;6.196;2024-01-27T12:38:02;7.57;;;2.20;;
84527;SDS011;74768;51.152;6.196;2024-01-27T12:40:28;7.35;;;2.67;;
84527;SDS011;74768;51.152;6.196;2024-01-27T12:42:53;6.40;;;2.25;;
84527;SDS011;74768;51.152;6.196;2024-01-27T12:45:19;10.33;;;2.70;;
84527;SDS011;74768;51.152;6.196;2024-01-27T12:47:44;8.23;;;2.60;;
84527;SDS011;74768;51.152;6.196;2024-01-27T12:50:10;11.50;;;2.85;;
84527;SDS011;74768;51.152;6.196;2024-01-27T12:52:35;10.60;;;2.73;;
84527;SDS011;74768;51.152;6.196;2024-01-27T12:55:02;16.88;;;3.08;;
84527;SDS011;74768;51.152;6.196;2024-01-27T12:57:27;6.75;;;2.13;;
84527;SDS011;74768;51.152;6.196;2024-01-27T12:59:52;11.90;;;2.95;;
84527;SDS011;74768;51.152;6.196;2024-01-27T13:02:18;5.27;;;2.37;;
84527;SDS011;74768;51.152;6.196;2024-01-27T13:04:43;7.00;;;2.50;;
84527;SDS011;74768;51.152;6.196;2024-01-27T13:07:08;7.63;;;2.60;;
84527;SDS011;74768;51.152;6.196;2024-01-27T13:09:34;7.20;;;2.97;;
84527;SDS011;74768;51.152;6.196;2024-01-27T13:12:00;6.63;;;2.45;;
84527;SDS011;74768;51.152;6.196;2024-01-27T13:14:26;6.73;;;2.80;;
84527;SDS011;74768;51.152;6.196;2024-01-27T13:16:51;7.60;;;2.33;;
84527;SDS011;74768;51.152;6.196;2024-01-27T13:19:19;6.72;;;2.10;;
84527;SDS011;74768;51.152;6.196;2024-01-27T13:21:44;5.65;;;2.35;;
84527;SDS011;74768;51.152;6.196;2024-01-27T13:24:09;4.97;;;2.10;;
84527;SDS011;74768;51.152;6.196;2024-01-27T13:26:34;6.47;;;2.60;;
84527;SDS011;74768;51.152;6.196;2024-01-27T13:29:05;7.82;;;2.10;;
84527;SDS011;74768;51.152;6.196;2024-01-27T13:31:31;11.07;;;2.47;;
84527;SDS011;74768;51.152;6.196;2024-01-27T13:33:57;6.72;;;2.40;;
84527;SDS011;74768;51.152;6.196;2024-01-27T13:36:23;5.28;;;2.10;;
84527;SDS011;74768;51.152;6.196;2024-01-27T13:38:50;9.18;;;2.72;;
84527;SDS011;74768;51.152;6.196;2024-01-27T13:41:15;5.23;;;2.10;;
84527;SDS011;74768;51.152;6.196;2024-01-27T13:43:40;9.23;;;2.42;;
84527;SDS011;74768;51.152;6.196;2024-01-27T13:46:06;6.55;;;2.63;;
84527;SDS011;74768;51.152;6.196;2024-01-27T13:48:31;9.38;;;2.65;;
84527;SDS011;74768;51.152;6.196;2024-01-27T13:50:57;4.75;;;2.40;;
84527;SDS011;74768;51.152;6.196;2024-01-27T13:53:22;10.57;;;3.35;;
84527;SDS011;74768;51.152;6.196;2024-01-27T13:55:48;8.50;;;2.50;;
84527;SDS011;74768;51.152;6.196;2024-01-27T13:58:14;7.97;;;2.55;;
84527;SDS011;74768;51.152;6.196;2024-01-27T14:00:39;9.57;;;2.70;;
84527;SDS011;74768;51.152;6.196;2024-01-27T14:03:04;6.77;;;2.30;;
84527;SDS011;74768;51.152;6.196;2024-01-27T14:05:29;6.53;;;2.73;;
84527;SDS011;74768;51.152;6.196;2024-01-27T14:07:55;7.25;;;2.30;;
84527;SDS011;74768;51.152;6.196;2024-01-27T14:10:21;8.40;;;2.67;;
84527;SDS011;74768;51.152;6.196;2024-01-27T14:12:46;7.13;;;2.67;;
84527;SDS011;74768;51.152;6.196;2024-01-27T14:15:11;6.00;;;2.77;;
84527;SDS011;74768;51.152;6.196;2024-01-27T14:17:36;12.85;;;3.05;;
84527;SDS011;74768;51.152;6.196;2024-01-27T14:20:02;9.27;;;2.67;;
84527;SDS011;74768;51.152;6.196;2024-01-27T14:22:28;5.60;;;2.20;;
84527;SDS011;74768;51.152;6.196;2024-01-27T14:24:54;7.53;;;2.58;;
84527;SDS011;74768;51.152;6.196;2024-01-27T14:27:19;7.78;;;2.65;;
84527;SDS011;74768;51.152;6.196;2024-01-27T14:29:50;11.07;;;2.60;;
84527;SDS011;74768;51.152;6.196;2024-01-27T14:32:22;6.00;;;2.53;;
84527;SDS011;74768;51.152;6.196;2024-01-27T14:34:48;11.50;;;2.45;;
84527;SDS011;74768;51.152;6.196;2024-01-27T14:37:14;5.57;;;2.60;;